Time;durP1;ratioP1;P1;durP2;ratioP2;P2;SDS_P1;SDS_P2;PMS_P1;PMS_P2;Temp;Humidity;BMP_temperature;BMP_pressure;BME280_temperature;BME280_humidity;BME280_pressure;Samples;Min_cycle;Max_cycle;Signal;HPM_P1;HPM_P2
2022/09/18 00:00:17;;;;;;;3.95;1.30;;;;;;;6.04;100.00;93167.28;2132105;27;20027;-69
2022/09/18 00:01:21;;;;;;;3.95;1.40;;;;;;;6.15;100.00;93187.75;2132047;27;20027;-70
2022/09/18 00:02:22;;;;;;;7.20;1.88;;;;;;;6.27;100.00;93179.31;2132087;27;20031;-69
2022/09/18 00:03:23;;;;;;;5.50;1.63;;;;;;;6.27;100.00;93180.09;2131352;27;20042;-70
2022/09/18 00:04:24;;;;;;;6.57;1.35;;;;;;;6.23;100.00;93178.59;2132192;27;20022;-71
2022/09/18 00:05:25;;;;;;;3.80;1.55;;;;;;;6.17;100.00;93182.78;2131919;27;20027;-69
2022/09/18 00:06:29;;;;;;;7.15;1.50;;;;;;;6.21;100.00;93189.59;2131999;27;20079;-69
2022/09/18 00:07:30;;;;;;;5.20;1.45;;;;;;;6.12;100.00;93186.59;2132102;27;20519;-70
2022/09/18 00:08:37;;;;;;;4.72;1.42;;;;;;;6.24;100.00;93188.84;2129359;27;20030;-69
2022/09/18 00:09:38;;;;;;;4.65;1.58;;;;;;;6.24;100.00;93186.19;2130848;27;20029;-69
2022/09/18 00:10:41;;;;;;;8.23;1.60;;;;;;;6.22;100.00;93182.38;2132194;27;20038;-70
2022/09/18 00:11:45;;;;;;;3.92;1.30;;;;;;;6.48;100.00;93181.88;2132068;27;20124;-70
2022/09/18 00:12:46;;;;;;;5.10;1.60;;;;;;;6.39;100.00;93181.56;2132271;27;20516;-70
2022/09/18 00:13:48;;;;;;;7.95;1.85;;;;;;;6.30;100.00;93181.22;2127122;27;20035;-69
2022/09/18 00:14:49;;;;;;;4.28;1.75;;;;;;;6.22;100.00;93182.38;2132037;27;20031;-69
2022/09/18 00:15:54;;;;;;;4.70;1.35;;;;;;;6.09;100.00;93189.25;2131793;27;20062;-69
2022/09/18 00:16:55;;;;;;;2.80;1.55;;;;;;;6.25;100.00;93179.72;2131842;27;20034;-69
2022/09/18 00:17:56;;;;;;;4.80;1.88;;;;;;;6.35;100.00;93191.44;2132064;27;20027;-70
2022/09/18 00:18:58;;;;;;;6.22;3.05;;;;;;;6.62;100.00;93206.84;2122179;27;20053;-69
2022/09/18 00:20:01;;;;;;;5.15;1.80;;;;;;;6.45;100.00;93184.53;2122986;27;20035;-69
2022/09/18 00:21:17;;;;;;;7.75;2.13;;;;;;;6.26;100.00;93183.13;2122682;27;20027;-70
2022/09/18 00:22:18;;;;;;;2.42;1.70;;;;;;;6.26;100.00;93189.19;2121116;27;20023;-69
2022/09/18 00:23:19;;;;;;;5.15;1.70;;;;;;;6.20;100.00;93184.69;2131927;27;20130;-70
2022/09/18 00:24:22;;;;;;;2.88;1.50;;;;;;;6.27;100.00;93190.69;2131289;27;20119;-69
2022/09/18 00:25:23;;;;;;;6.43;1.60;;;;;;;6.16;100.00;93197.22;2131984;27;20147;-69
2022/09/18 00:26:24;;;;;;;3.85;1.52;;;;;;;6.20;100.00;93187.34;2131724;27;20432;-69
2022/09/18 00:27:25;;;;;;;2.88;1.67;;;;;;;6.22;100.00;93193.75;2131899;27;20083;-70
2022/09/18 00:28:27;;;;;;;4.60;1.70;;;;;;;6.22;100.00;93185.78;2131909;27;20074;-70
2022/09/18 00:29:28;;;;;;;4.30;1.50;;;;;;;6.24;100.00;93185.44;2131299;27;20033;-69
2022/09/18 00:30:29;;;;;;;5.50;1.45;;;;;;;6.39;100.00;93180.78;2131797;27;20364;-68
2022/09/18 00:31:33;;;;;;;5.55;1.80;;;;;;;6.30;100.00;93194.50;2131681;27;20033;-69
2022/09/18 00:32:34;;;;;;;5.30;1.60;;;;;;;6.26;100.00;93185.78;2131863;27;20525;-70
2022/09/18 00:33:36;;;;;;;5.63;1.50;;;;;;;6.23;100.00;93183.91;2131844;27;20030;-69
2022/09/18 00:34:38;;;;;;;6.65;1.60;;;;;;;6.31;100.00;93180.81;2131048;27;20591;-69
2022/09/18 00:35:43;;;;;;;3.65;1.35;;;;;;;6.19;100.00;93194.53;2131853;27;20305;-70
2022/09/18 00:36:44;;;;;;;2.65;1.35;;;;;;;6.23;100.00;93183.91;2131734;27;20457;-70
2022/09/18 00:37:45;;;;;;;6.47;2.35;;;;;;;6.14;100.00;93188.88;2131938;27;20075;-69
2022/09/18 00:38:47;;;;;;;2.33;1.40;;;;;;;6.14;100.00;93175.59;2131860;27;20528;-70
2022/09/18 00:39:48;;;;;;;3.00;1.40;;;;;;;6.33;100.00;93180.47;2127035;27;20031;-69
2022/09/18 00:40:49;;;;;;;2.70;1.63;;;;;;;6.23;100.00;93176.72;2131843;27;20034;-68
2022/09/18 00:41:50;;;;;;;2.35;1.40;;;;;;;6.46;100.00;93172.81;2131685;27;20529;-70
2022/09/18 00:42:51;;;;;;;4.95;1.40;;;;;;;6.24;100.00;93174.81;2131812;27;20459;-71
2022/09/18 00:43:55;;;;;;;6.07;1.60;;;;;;;6.21;100.00;93172.91;2131840;27;20025;-70
2022/09/18 00:44:56;;;;;;;7.28;1.65;;;;;;;6.16;100.00;93178.63;2130976;27;20125;-70
2022/09/18 00:46:07;;;;;;;3.65;1.20;;;;;;;6.09;100.00;93182.06;2131968;27;20031;-70
2022/09/18 00:47:10;;;;;;;5.25;1.50;;;;;;;6.01;100.00;93177.91;2122345;27;20027;-71
2022/09/18 00:48:11;;;;;;;6.93;1.50;;;;;;;6.09;100.00;93181.31;2123055;27;20372;-69
2022/09/18 00:49:17;;;;;;;2.28;1.25;;;;;;;6.14;100.00;93179.00;2131670;27;20109;-71
2022/09/18 00:50:25;;;;;;;6.10;1.52;;;;;;;6.19;100.00;93175.97;2130930;27;20018;-69
2022/09/18 00:51:28;;;;;;;4.82;1.42;;;;;;;6.27;100.00;93174.00;2131715;27;20487;-69
2022/09/18 00:52:37;;;;;;;6.47;1.52;;;;;;;6.32;100.00;93173.59;2131606;27;20422;-69
2022/09/18 00:53:43;;;;;;;4.78;1.73;;;;;;;6.32;100.00;93176.25;2122495;27;20400;-69
2022/09/18 00:54:51;;;;;;;8.38;1.40;;;;;;;6.35;100.00;93174.75;2123021;27;20033;-69
2022/09/18 00:55:52;;;;;;;2.47;1.27;;;;;;;6.18;100.00;93171.78;2120096;27;20035;-69
2022/09/18 00:56:57;;;;;;;5.32;1.92;;;;;;;6.14;100.00;93175.59;2122670;27;20126;-70
2022/09/18 00:58:04;;;;;;;4.97;1.50;;;;;;;6.16;100.00;93181.28;2131544;27;20034;-69
2022/09/18 00:59:07;;;;;;;4.05;1.40;;;;;;;6.12;100.00;93165.38;2131649;27;20030;-70
2022/09/18 01:00:13;;;;;;;5.13;1.50;;;;;;;5.96;100.00;93176.41;2131696;27;20087;-69
2022/09/18 01:01:14;;;;;;;2.78;1.13;;;;;;;5.91;100.00;93179.44;2131475;27;20033;-69
2022/09/18 01:02:15;;;;;;;3.08;1.60;;;;;;;5.92;100.00;93173.00;2131569;27;20019;-69
2022/09/18 01:03:16;;;;;;;3.33;1.73;;;;;;;6.02;100.00;93171.50;2122313;27;20035;-68
2022/09/18 01:04:17;;;;;;;3.22;1.48;;;;;;;6.00;100.00;93177.16;2122702;27;20050;-69
2022/09/18 01:05:31;;;;;;;7.10;2.00;;;;;;;5.97;100.00;93177.16;2131330;27;20033;-69
2022/09/18 01:06:41;;;;;;;3.78;1.45;;;;;;;5.84;100.00;93179.47;2129580;27;20037;-69
2022/09/18 01:08:18;;;;;;;4.95;1.20;;;;;;;6.15;100.00;93174.47;2131526;27;20057;-69
2022/09/18 01:09:41;;;;;;;6.32;1.60;;;;;;;5.94;100.00;93175.31;2127698;27;20114;-68
2022/09/18 01:10:54;;;;;;;6.28;1.63;;;;;;;5.98;100.00;93176.03;2130842;27;20019;-70
2022/09/18 01:12:09;;;;;;;4.00;1.27;;;;;;;6.04;100.00;93172.59;2128496;27;20030;-68
2022/09/18 01:13:12;;;;;;;4.20;1.60;;;;;;;5.96;100.00;93173.75;2122218;27;20030;-67
2022/09/18 01:14:38;;;;;;;4.10;1.48;;;;;;;5.99;100.00;93180.22;2122660;27;20062;-69
2022/09/18 01:15:59;;;;;;;8.35;1.73;;;;;;;5.92;100.00;93172.25;2130470;27;20022;-70
2022/09/18 01:17:24;;;;;;;6.95;1.58;;;;;;;5.99;100.00;93180.22;2128989;27;20159;-69
2022/09/18 01:18:45;;;;;;;3.90;1.30;;;;;;;6.03;100.00;93179.06;2131377;27;20030;-69
2022/09/18 01:20:02;;;;;;;2.05;1.30;;;;;;;5.88;100.00;93182.09;2127195;27;20106;-68
2022/09/18 01:21:16;;;;;;;5.57;1.73;;;;;;;5.80;100.00;93181.38;2130855;27;20379;-69
2022/09/18 01:22:39;;;;;;;8.40;1.70;;;;;;;5.85;100.00;93182.88;2127246;27;20149;-69
2022/09/18 01:24:20;;;;;;;8.68;1.75;;;;;;;5.82;100.00;93181.75;2131262;27;20030;-69
2022/09/18 01:25:59;;;;;;;8.02;1.55;;;;;;;5.89;100.00;93175.66;2126949;27;20030;-67
2022/09/18 01:27:06;;;;;;;3.38;1.38;;;;;;;5.94;100.00;93177.97;2129308;27;20034;-70
2022/09/18 01:28:28;;;;;;;5.65;1.30;;;;;;;6.12;100.00;93169.94;2131361;27;20023;-68
2022/09/18 01:29:54;;;;;;;3.13;1.08;;;;;;;5.96;100.00;93165.81;2128905;27;20457;-69
2022/09/18 01:31:00;;;;;;;5.50;1.50;;;;;;;5.76;100.00;93168.13;2128389;27;20023;-69
2022/09/18 01:32:36;;;;;;;7.22;1.55;;;;;;;5.74;100.00;93170.38;2130675;27;20041;-69
2022/09/18 01:33:51;;;;;;;4.55;1.50;;;;;;;5.54;100.00;93170.06;2129966;27;20027;-69
2022/09/18 01:35:01;;;;;;;7.85;2.05;;;;;;;5.52;100.00;93167.03;2127822;27;20034;-70
2022/09/18 01:36:07;;;;;;;3.72;1.40;;;;;;;5.50;100.00;93161.38;2131256;27;20066;-71
2022/09/18 01:37:36;;;;;;;6.93;1.33;;;;;;;5.41;100.00;93160.25;2130895;27;20022;-70
2022/09/18 01:38:45;;;;;;;3.70;1.23;;;;;;;5.33;100.00;93151.53;2130116;27;20031;-69
2022/09/18 01:39:52;;;;;;;5.45;1.52;;;;;;;5.33;100.00;93146.25;2131244;27;20118;-69
2022/09/18 01:41:02;;;;;;;4.35;1.60;;;;;;;5.30;100.00;93145.09;2118901;27;20023;-68
2022/09/18 01:42:05;;;;;;;7.30;1.92;;;;;;;5.27;100.00;93150.44;2123576;27;20058;-70
2022/09/18 01:43:10;;;;;;;5.22;1.58;;;;;;;5.40;100.00;93154.19;2130509;27;20350;-68
2022/09/18 01:44:15;;;;;;;6.60;1.55;;;;;;;5.38;100.00;93158.34;2131124;27;20408;-70
2022/09/18 01:45:26;;;;;;;6.45;1.63;;;;;;;5.28;100.00;93157.25;2131255;27;20022;-69
2022/09/18 01:46:28;;;;;;;6.00;1.52;;;;;;;5.28;100.00;93159.88;2128655;27;20027;-69
2022/09/18 01:47:34;;;;;;;8.63;1.40;;;;;;;5.21;100.00;93155.34;2131402;27;20068;-69
2022/09/18 01:48:45;;;;;;;4.82;1.30;;;;;;;5.34;100.00;93163.66;2130576;27;20026;-69
2022/09/18 01:49:48;;;;;;;4.55;1.30;;;;;;;5.26;100.00;93159.50;2131271;27;20030;-69
2022/09/18 01:51:00;;;;;;;7.07;1.60;;;;;;;5.18;100.00;93160.63;2113983;28;20031;-69
2022/09/18 01:52:09;;;;;;;9.60;1.55;;;;;;;5.14;100.00;93157.25;2123780;27;20031;-69
2022/09/18 01:53:26;;;;;;;7.03;1.52;;;;;;;5.13;100.00;93161.03;2131286;27;20357;-70
2022/09/18 01:54:32;;;;;;;5.10;1.17;;;;;;;5.07;100.00;93157.25;2128366;27;20033;-69
2022/09/18 01:55:34;;;;;;;3.42;1.17;;;;;;;5.14;100.00;93154.59;2131329;27;20027;-70
2022/09/18 01:56:38;;;;;;;7.35;1.50;;;;;;;5.17;100.00;93153.81;2131168;27;20019;-69
2022/09/18 01:57:48;;;;;;;7.13;1.40;;;;;;;5.16;100.00;93157.63;2131156;27;20034;-70
2022/09/18 01:58:52;;;;;;;6.22;1.48;;;;;;;5.15;100.00;93156.88;2126665;27;20030;-70
2022/09/18 02:00:01;;;;;;;10.07;1.90;;;;;;;5.07;100.00;93160.66;2131049;27;20041;-70
2022/09/18 02:01:11;;;;;;;4.72;1.42;;;;;;;5.09;100.00;93154.97;2131085;27;20441;-70
2022/09/18 02:02:19;;;;;;;3.80;1.33;;;;;;;5.03;100.00;93157.25;2131217;27;20476;-69
2022/09/18 02:03:26;;;;;;;3.78;1.20;;;;;;;4.89;100.00;93154.59;2127432;27;20031;-70
2022/09/18 02:04:31;;;;;;;7.97;1.23;;;;;;;5.19;100.00;93146.28;2130615;27;20022;-71
2022/09/18 02:05:38;;;;;;;6.13;1.10;;;;;;;5.08;100.00;93143.63;2131147;27;20034;-69
2022/09/18 02:06:48;;;;;;;3.13;0.90;;;;;;;5.15;100.00;93148.16;2130881;27;20018;-69
2022/09/18 02:07:54;;;;;;;3.33;1.35;;;;;;;5.17;100.00;93148.53;2127152;27;20022;-71
2022/09/18 02:08:58;;;;;;;5.78;1.20;;;;;;;5.10;100.00;93137.97;2130519;27;20101;-69
2022/09/18 02:09:59;;;;;;;3.72;1.10;;;;;;;5.03;100.00;93142.09;2131046;27;20121;-69
2022/09/18 02:11:05;;;;;;;6.68;1.25;;;;;;;5.03;100.00;93144.75;2131162;27;20034;-69
2022/09/18 02:12:10;;;;;;;5.78;1.40;;;;;;;5.09;100.00;93147.00;2131118;27;20019;-68
2022/09/18 02:13:17;;;;;;;2.92;1.13;;;;;;;4.99;100.00;93143.25;2131146;27;20026;-69
2022/09/18 02:15:35;;;;;;;;;;;;;;;4.85;100.00;93140.59;2145559;27;20546;-71
2022/09/18 02:16:51;;;;;;;4.80;1.70;;;;;;;4.78;100.00;93139.47;2138380;27;19968;-70
2022/09/18 02:18:03;;;;;;;3.72;1.05;;;;;;;4.85;100.00;93141.34;2134952;27;20439;-69
2022/09/18 02:19:13;;;;;;;5.03;1.27;;;;;;;4.77;100.00;93134.53;2138358;27;20026;-70
2022/09/18 02:20:21;;;;;;;3.92;1.27;;;;;;;4.78;100.00;93136.03;2138153;27;20457;-71
2022/09/18 02:21:27;;;;;;;4.55;1.23;;;;;;;4.77;100.00;93139.84;2135106;27;20520;-70
2022/09/18 02:22:32;;;;;;;5.13;1.30;;;;;;;4.95;100.00;93142.47;2138664;27;20023;-67
2022/09/18 02:23:36;;;;;;;3.38;1.27;;;;;;;4.88;100.00;93145.16;2138543;27;20344;-71
2022/09/18 02:24:42;;;;;;;5.82;1.42;;;;;;;4.81;100.00;93140.59;2138494;27;20687;-70
2022/09/18 02:25:55;;;;;;;6.63;1.10;;;;;;;4.94;100.00;93141.72;2137522;27;20445;-70
2022/09/18 02:26:57;;;;;;;5.45;1.30;;;;;;;4.97;100.00;93145.53;2135628;27;20039;-72
2022/09/18 02:27:59;;;;;;;6.47;1.80;;;;;;;4.98;100.00;93150.44;2138621;27;20086;-70
2022/09/18 02:29:01;;;;;;;6.32;1.65;;;;;;;4.86;100.00;93142.09;2138731;27;20429;-70
2022/09/18 02:30:05;;;;;;;5.70;1.33;;;;;;;4.86;100.00;93142.88;2138331;27;20030;-70
2022/09/18 02:31:06;;;;;;;10.70;1.92;;;;;;;4.80;100.00;93142.50;2138032;27;20396;-70
2022/09/18 02:32:07;;;;;;;4.82;1.92;;;;;;;4.77;100.00;93148.53;2138546;27;20069;-71
2022/09/18 02:33:32;;;;;;;4.50;1.33;;;;;;;4.76;100.00;93147.03;2138639;27;20030;-69
2022/09/18 02:34:33;;;;;;;2.17;1.13;;;;;;;4.81;100.00;93145.88;2136369;27;20026;-70
2022/09/18 02:35:42;;;;;;;5.75;1.50;;;;;;;4.71;100.00;93147.41;2137618;27;20075;-71
2022/09/18 02:36:59;;;;;;;4.78;1.30;;;;;;;4.74;100.00;93146.66;2138461;27;20448;-70
2022/09/18 02:38:14;;;;;;;4.93;1.08;;;;;;;4.69;100.00;93147.00;2136191;27;20033;-70
2022/09/18 02:39:40;;;;;;;3.42;1.20;;;;;;;4.64;100.00;93149.28;2138466;27;20479;-70
2022/09/18 02:40:56;;;;;;;2.58;1.15;;;;;;;5.02;100.00;93147.78;2136794;27;20471;-71
2022/09/18 02:42:26;;;;;;;2.63;0.90;;;;;;;5.26;100.00;93144.34;2135611;27;20079;-70
2022/09/18 02:43:56;;;;;;;3.72;1.17;;;;;;;5.16;100.00;93136.44;2094713;28;20913;-69
2022/09/18 02:45:29;;;;;;;5.05;1.20;;;;;;;5.04;100.00;93137.56;2129604;27;20472;-70
2022/09/18 02:46:50;;;;;;;2.80;1.63;;;;;;;5.08;100.00;93137.56;2136198;27;20510;-70
2022/09/18 02:48:19;;;;;;;3.70;1.17;;;;;;;5.01;100.00;93139.09;2134766;27;20043;-71
2022/09/18 02:49:48;;;;;;;3.08;2.03;;;;;;;5.08;100.00;93137.56;2125402;27;20023;-71
2022/09/18 02:51:11;;;;;;;5.05;1.20;;;;;;;5.42;100.00;93140.56;2129234;27;20030;-70
2022/09/18 02:52:26;;;;;;;4.03;0.95;;;;;;;5.51;100.00;93148.88;2137673;27;20054;-71
2022/09/18 02:53:33;;;;;;;2.70;1.10;;;;;;;5.65;100.00;93140.88;2135482;27;20033;-72
2022/09/18 02:54:45;;;;;;;5.05;0.98;;;;;;;5.74;100.00;93137.81;2138236;27;20023;-70
2022/09/18 02:55:51;;;;;;;4.93;1.30;;;;;;;5.67;100.00;93141.25;2138261;27;20474;-69
2022/09/18 02:56:58;;;;;;;4.45;0.90;;;;;;;5.42;100.00;93138.66;2134962;27;20023;-70
2022/09/18 02:58:04;;;;;;;6.78;1.30;;;;;;;5.41;100.00;93136.41;2129100;27;20098;-69
2022/09/18 02:59:20;;;;;;;7.45;1.30;;;;;;;5.38;100.00;93131.84;2129851;27;20504;-70
2022/09/18 03:00:22;;;;;;;3.30;1.20;;;;;;;5.59;100.00;93141.66;2134707;27;20105;-70
2022/09/18 03:01:25;;;;;;;4.32;1.13;;;;;;;5.64;100.00;93133.31;2137491;27;20074;-69
2022/09/18 03:02:27;;;;;;;3.90;1.10;;;;;;;5.65;100.00;93132.16;2129062;27;20027;-69
2022/09/18 03:03:31;;;;;;;1.90;1.00;;;;;;;5.66;100.00;93136.31;2129162;27;20054;-69
2022/09/18 03:04:33;;;;;;;3.58;1.23;;;;;;;5.67;100.00;93141.25;2138291;27;20444;-69
2022/09/18 03:05:34;;;;;;;4.10;1.00;;;;;;;5.66;100.00;93131.00;2138214;27;20054;-69
2022/09/18 03:06:35;;;;;;;1.92;1.00;;;;;;;5.67;100.00;93137.84;2138036;27;20444;-69
2022/09/18 03:07:36;;;;;;;4.68;0.90;;;;;;;5.50;100.00;93132.19;2137354;27;20026;-69
2022/09/18 03:08:37;;;;;;;2.15;1.00;;;;;;;5.72;100.00;93137.44;2138153;27;20037;-69
2022/09/18 03:09:38;;;;;;;6.35;1.27;;;;;;;5.85;100.00;93135.13;2138195;27;20026;-70
2022/09/18 03:10:39;;;;;;;5.57;1.17;;;;;;;5.84;100.00;93134.38;2138263;27;20110;-69
2022/09/18 03:11:40;;;;;;;4.43;1.05;;;;;;;5.73;100.00;93136.31;2138009;27;20026;-71
2022/09/18 03:12:41;;;;;;;3.55;1.20;;;;;;;5.68;100.00;93120.78;2137330;27;20054;-69
2022/09/18 03:13:41;;;;;;;9.88;1.20;;;;;;;5.77;100.00;93123.78;2138072;27;20154;-69
2022/09/18 03:14:42;;;;;;;4.72;1.00;;;;;;;5.90;100.00;93124.13;2137884;27;20380;-70
2022/09/18 03:15:43;;;;;;;1.20;1.05;;;;;;;5.94;100.00;93124.91;2138047;27;20102;-68
2022/09/18 03:16:45;;;;;;;4.22;1.20;;;;;;;5.91;100.00;93122.97;2137925;27;20369;-69
2022/09/18 03:17:46;;;;;;;3.47;0.90;;;;;;;6.07;100.00;93128.63;2137402;27;20034;-70
2022/09/18 03:18:47;;;;;;;4.35;1.00;;;;;;;6.14;100.00;93127.81;2124744;27;20023;-69
2022/09/18 03:19:48;;;;;;;6.10;0.90;;;;;;;6.02;100.00;93121.06;2128888;27;20023;-70
2022/09/18 03:20:49;;;;;;;2.53;0.98;;;;;;;5.90;100.00;93126.78;2138227;27;20368;-69
2022/09/18 03:21:51;;;;;;;4.47;1.30;;;;;;;5.85;100.00;93132.47;2137858;27;20031;-69
2022/09/18 03:22:52;;;;;;;2.30;1.02;;;;;;;5.89;100.00;93123.38;2137575;27;20079;-70
2022/09/18 03:23:53;;;;;;;3.40;1.10;;;;;;;5.94;100.00;93127.56;2138125;27;20501;-70
2022/09/18 03:24:54;;;;;;;5.50;1.05;;;;;;;5.88;100.00;93121.84;2138150;27;20030;-69
2022/09/18 03:25:55;;;;;;;2.60;1.05;;;;;;;5.79;100.00;93130.22;2138067;27;20106;-70
2022/09/18 03:26:56;;;;;;;7.82;1.20;;;;;;;5.78;100.00;93127.94;2131898;27;20368;-70
2022/09/18 03:27:59;;;;;;;2.78;1.00;;;;;;;5.88;100.00;93127.16;2131586;27;20049;-69
2022/09/18 03:29:00;;;;;;;2.90;1.02;;;;;;;5.82;100.00;93126.78;2132447;27;20476;-70
2022/09/18 03:30:01;;;;;;;4.57;1.52;;;;;;;5.90;100.00;93129.44;2132166;27;20106;-71
2022/09/18 03:31:02;;;;;;;3.08;1.10;;;;;;;5.95;100.00;93127.16;2132344;27;20030;-70
2022/09/18 03:32:03;;;;;;;4.32;1.17;;;;;;;5.93;100.00;93129.44;2132136;27;20062;-69
2022/09/18 03:33:04;;;;;;;3.25;1.00;;;;;;;5.77;100.00;93137.06;2131432;27;20031;-70
2022/09/18 03:34:05;;;;;;;2.70;1.10;;;;;;;5.84;100.00;93137.03;2132397;27;20030;-71
2022/09/18 03:35:07;;;;;;;7.03;1.17;;;;;;;5.84;100.00;93142.34;2132011;27;20034;-70
2022/09/18 03:36:08;;;;;;;4.00;1.15;;;;;;;5.90;100.00;93140.78;2132347;27;20386;-71
2022/09/18 03:37:08;;;;;;;4.88;1.10;;;;;;;5.98;100.00;93136.25;2132133;27;20103;-70
2022/09/18 03:38:09;;;;;;;4.28;1.40;;;;;;;5.89;100.00;93136.63;2132121;27;20035;-69
2022/09/18 03:39:10;;;;;;;4.57;1.10;;;;;;;5.97;100.00;93135.50;2131772;27;20053;-70
2022/09/18 03:40:11;;;;;;;3.25;1.25;;;;;;;6.20;100.00;93137.66;2131997;27;20042;-70
2022/09/18 03:41:12;;;;;;;7.05;1.27;;;;;;;6.18;100.00;93137.28;2132313;27;20022;-70
2022/09/18 03:42:13;;;;;;;3.83;1.00;;;;;;;6.08;100.00;93142.66;2132114;27;20023;-69
2022/09/18 03:43:14;;;;;;;4.35;1.10;;;;;;;6.01;100.00;93146.84;2132214;27;20345;-70
2022/09/18 03:44:15;;;;;;;6.97;1.20;;;;;;;5.99;100.00;93143.06;2131630;27;20029;-69
2022/09/18 03:45:16;;;;;;;7.07;1.20;;;;;;;6.02;100.00;93145.72;2118774;27;20385;-70
2022/09/18 03:46:22;;;;;;;5.75;1.30;;;;;;;6.07;100.00;93141.16;2122952;27;20057;-70
2022/09/18 03:47:24;;;;;;;2.95;1.30;;;;;;;6.13;100.00;93148.31;2132156;27;20063;-70
2022/09/18 03:48:26;;;;;;;4.45;1.08;;;;;;;6.02;100.00;93142.31;2132117;27;20026;-71
2022/09/18 03:49:27;;;;;;;4.40;1.17;;;;;;;6.10;100.00;93140.34;2131505;27;20471;-70
2022/09/18 03:50:28;;;;;;;3.95;1.10;;;;;;;5.99;100.00;93138.50;2132077;27;20023;-71
2022/09/18 03:51:31;;;;;;;5.50;1.40;;;;;;;6.04;100.00;93138.09;2132079;27;20452;-70
2022/09/18 03:52:33;;;;;;;3.28;1.20;;;;;;;6.05;100.00;93142.25;2132091;27;20404;-70
2022/09/18 03:53:33;;;;;;;4.80;1.15;;;;;;;5.95;100.00;93137.75;2132126;27;20083;-70
2022/09/18 03:54:34;;;;;;;3.80;1.10;;;;;;;5.85;100.00;93135.88;2131225;27;20023;-71
2022/09/18 03:55:36;;;;;;;4.57;1.35;;;;;;;5.98;100.00;93129.03;2132131;27;20023;-69
2022/09/18 03:56:37;;;;;;;4.90;1.15;;;;;;;5.96;100.00;93123.34;2132244;27;20360;-70
2022/09/18 03:57:38;;;;;;;3.65;1.33;;;;;;;5.90;100.00;93130.19;2132203;27;20039;-70
2022/09/18 03:58:40;;;;;;;4.00;1.10;;;;;;;5.85;100.00;93113.91;2131844;27;20109;-70
2022/09/18 03:59:40;;;;;;;4.10;1.40;;;;;;;5.86;100.00;93121.47;2131174;27;20501;-71
2022/09/18 04:00:42;;;;;;;4.10;1.10;;;;;;;5.88;100.00;93110.47;2122882;27;20023;-71
2022/09/18 04:01:43;;;;;;;4.55;1.42;;;;;;;5.88;100.00;93113.13;2122853;27;20023;-71
2022/09/18 04:02:44;;;;;;;6.28;1.70;;;;;;;6.02;100.00;93113.13;2132111;27;20053;-70
2022/09/18 04:03:45;;;;;;;3.00;0.90;;;;;;;5.93;100.00;93118.84;2131938;27;20026;-70
2022/09/18 04:04:45;;;;;;;3.65;1.10;;;;;;;5.84;100.00;93113.16;2131522;27;20033;-70
2022/09/18 04:05:48;;;;;;;4.15;1.50;;;;;;;5.90;100.00;93116.91;2127792;27;20102;-70
2022/09/18 04:06:50;;;;;;;4.60;1.50;;;;;;;5.86;100.00;93118.81;2132179;27;20050;-70
2022/09/18 04:07:50;;;;;;;3.40;1.30;;;;;;;5.81;100.00;93119.97;2132061;27;20022;-69
2022/09/18 04:08:52;;;;;;;5.03;1.25;;;;;;;5.94;100.00;93124.91;2131848;27;20031;-70
2022/09/18 04:09:53;;;;;;;4.18;1.30;;;;;;;5.87;100.00;93130.94;2132021;27;20054;-69
2022/09/18 04:10:54;;;;;;;3.72;1.27;;;;;;;5.90;100.00;93130.19;2131584;27;20034;-70
2022/09/18 04:11:54;;;;;;;2.75;1.35;;;;;;;5.84;100.00;93131.72;2131969;27;20054;-71
2022/09/18 04:12:55;;;;;;;6.72;1.38;;;;;;;5.96;100.00;93131.31;2131964;27;20144;-70
2022/09/18 04:13:56;;;;;;;4.05;1.30;;;;;;;6.08;100.00;93135.44;2131893;27;20030;-71
2022/09/18 04:14:57;;;;;;;5.22;1.25;;;;;;;6.19;100.00;93143.34;2131608;27;20045;-70
2022/09/18 04:15:58;;;;;;;5.65;1.48;;;;;;;6.18;100.00;93155.09;2131279;27;20034;-71
2022/09/18 04:16:59;;;;;;;5.10;1.58;;;;;;;6.13;100.00;93142.25;2122753;27;20058;-70
2022/09/18 04:18:00;;;;;;;7.05;1.35;;;;;;;6.23;100.00;93147.50;2122766;27;20019;-70
2022/09/18 04:19:01;;;;;;;5.15;1.40;;;;;;;6.25;100.00;93153.19;2131772;27;20051;-69
2022/09/18 04:20:03;;;;;;;6.38;1.42;;;;;;;6.07;100.00;93149.09;2131737;27;20056;-69
2022/09/18 04:21:05;;;;;;;2.88;1.10;;;;;;;6.14;100.00;93147.16;2131333;27;20027;-71
2022/09/18 04:22:06;;;;;;;3.78;1.58;;;;;;;6.21;100.00;93151.69;2131930;27;20027;-71
2022/09/18 04:23:07;;;;;;;6.68;2.05;;;;;;;6.21;100.00;93149.03;2131910;27;20049;-70
2022/09/18 04:24:08;;;;;;;7.25;1.20;;;;;;;6.20;100.00;93142.22;2131749;27;20022;-70
2022/09/18 04:25:09;;;;;;;4.22;1.20;;;;;;;6.39;100.00;93144.38;2131674;27;20031;-70
2022/09/18 04:26:10;;;;;;;7.15;1.30;;;;;;;6.48;100.00;93147.38;2131119;27;20047;-70
2022/09/18 04:27:11;;;;;;;3.85;1.23;;;;;;;6.38;100.00;93148.19;2131821;27;20030;-70
2022/09/18 04:28:12;;;;;;;6.35;1.10;;;;;;;6.21;100.00;93146.38;2131926;27;20471;-70
2022/09/18 04:29:13;;;;;;;4.22;0.95;;;;;;;6.27;100.00;93147.47;2131742;27;20118;-69
2022/09/18 04:30:14;;;;;;;4.13;1.17;;;;;;;6.28;100.00;93144.44;2131744;27;20015;-70
2022/09/18 04:31:15;;;;;;;4.10;1.40;;;;;;;6.27;100.00;93144.81;2131141;27;20030;-70
2022/09/18 04:32:16;;;;;;;1.90;1.02;;;;;;;6.33;100.00;93145.19;2131844;27;20093;-69
2022/09/18 04:33:17;;;;;;;3.47;1.15;;;;;;;6.29;100.00;93147.84;2127603;27;20356;-70
2022/09/18 04:34:18;;;;;;;3.67;1.40;;;;;;;6.21;100.00;93154.34;2131638;27;20394;-68
2022/09/18 04:35:19;;;;;;;3.95;1.00;;;;;;;6.08;100.00;93150.59;2131639;27;20033;-69
2022/09/18 04:36:19;;;;;;;5.32;1.27;;;;;;;6.07;100.00;93149.84;2131048;27;20030;-70
2022/09/18 04:37:21;;;;;;;1.85;1.15;;;;;;;6.28;100.00;93152.41;2131790;27;20027;-69
2022/09/18 04:38:26;;;;;;;6.13;1.30;;;;;;;6.20;100.00;93142.97;2130867;27;20501;-69
2022/09/18 04:39:27;;;;;;;6.80;1.25;;;;;;;6.13;100.00;93144.91;2131528;27;20042;-70
2022/09/18 04:40:28;;;;;;;4.43;1.38;;;;;;;6.30;100.00;93142.16;2131682;27;20034;-70
2022/09/18 04:41:29;;;;;;;2.95;1.50;;;;;;;6.14;100.00;93144.50;2130941;27;20035;-70
2022/09/18 04:42:31;;;;;;;6.95;1.13;;;;;;;6.23;100.00;93150.16;2131666;27;20023;-70
2022/09/18 04:43:32;;;;;;;3.85;1.10;;;;;;;6.21;100.00;93151.69;2131700;27;20025;-70
2022/09/18 04:44:33;;;;;;;6.43;1.20;;;;;;;6.18;100.00;93157.75;2122198;27;20406;-70
2022/09/18 04:45:34;;;;;;;3.25;0.95;;;;;;;6.22;100.00;93161.91;2122661;27;20109;-71
2022/09/18 04:46:34;;;;;;;5.78;1.40;;;;;;;6.31;100.00;93158.84;2130739;27;20011;-70
2022/09/18 04:47:35;;;;;;;2.58;1.02;;;;;;;6.19;100.00;93162.69;2131651;27;20094;-70
2022/09/18 04:48:36;;;;;;;4.45;1.30;;;;;;;6.03;100.00;93154.41;2131738;27;20038;-71
2022/09/18 04:49:37;;;;;;;8.48;1.20;;;;;;;5.97;100.00;93164.69;2131496;27;20023;-71
2022/09/18 04:50:38;;;;;;;5.47;1.33;;;;;;;5.99;100.00;93169.59;2131714;27;20038;-69
2022/09/18 04:51:39;;;;;;;3.58;1.30;;;;;;;6.00;100.00;93181.72;2130492;27;20026;-70
2022/09/18 04:52:40;;;;;;;6.45;1.38;;;;;;;6.00;100.00;93171.09;2130655;27;20110;-70
2022/09/18 04:53:41;;;;;;;8.80;2.08;;;;;;;6.01;100.00;93168.09;2131570;27;20018;-69
2022/09/18 04:54:42;;;;;;;4.55;1.30;;;;;;;6.22;100.00;93174.44;2131130;27;20019;-69
2022/09/18 04:55:46;;;;;;;3.22;1.42;;;;;;;6.24;100.00;93164.94;2131653;27;20022;-69
2022/09/18 04:56:47;;;;;;;3.08;1.15;;;;;;;6.16;100.00;93171.44;2126803;27;20061;-70
2022/09/18 04:57:48;;;;;;;2.40;1.30;;;;;;;6.05;100.00;93176.00;2127538;27;20053;-70
2022/09/18 04:58:49;;;;;;;3.17;1.13;;;;;;;6.08;100.00;93172.59;2131660;27;20068;-70
2022/09/18 04:59:51;;;;;;;4.25;1.42;;;;;;;6.17;100.00;93174.84;2131355;27;20025;-69
2022/09/18 05:00:52;;;;;;;4.28;1.48;;;;;;;6.20;100.00;93171.41;2131493;27;20022;-70
2022/09/18 05:01:53;;;;;;;4.95;1.20;;;;;;;6.14;100.00;93173.69;2122123;27;20026;-70
2022/09/18 05:02:54;;;;;;;4.97;1.00;;;;;;;6.16;100.00;93178.63;2121752;27;20030;-70
2022/09/18 05:03:55;;;;;;;2.50;1.02;;;;;;;6.10;100.00;93174.84;2131587;27;20027;-70
2022/09/18 05:04:56;;;;;;;6.25;1.20;;;;;;;6.11;100.00;93173.72;2131434;27;20065;-69
2022/09/18 05:05:56;;;;;;;7.50;1.40;;;;;;;6.13;100.00;93184.69;2131390;27;20022;-70
2022/09/18 05:06:57;;;;;;;6.68;1.30;;;;;;;6.08;100.00;93188.50;2131485;27;20072;-70
2022/09/18 05:08:02;;;;;;;10.75;1.73;;;;;;;6.11;100.00;93181.69;2130821;27;20364;-70
2022/09/18 05:09:03;;;;;;;6.47;1.60;;;;;;;6.04;100.00;93183.22;2131642;27;20045;-70